Time;durP1;ratioP1;P1;durP2;ratioP2;P2;SDS_P1;SDS_P2;PMS_P1;PMS_P2;Temp;Humidity;BMP_temperature;BMP_pressure;BME280_temperature;BME280_humidity;BME280_pressure;Samples;Min_cycle;Max_cycle;Signal;HPM_P1;HPM_P2
2022/07/04 00:02:27;;;;;;;6.60;3.03;;;17.70;99.90;;;;;;5246345;28;20106;-74
2022/07/04 00:04:58;;;;;;;7.03;2.92;;;17.60;99.90;;;;;;5248055;28;20365;-74
2022/07/04 00:07:29;;;;;;;6.10;2.92;;;17.20;99.90;;;;;;5263463;28;20460;-74
2022/07/04 00:10:00;;;;;;;7.55;3.00;;;17.10;99.90;;;;;;5247684;28;20051;-74
2022/07/04 00:12:30;;;;;;;7.20;3.08;;;17.20;99.90;;;;;;5247963;28;20060;-75
2022/07/04 00:15:04;;;;;;;7.22;2.85;;;17.30;99.90;;;;;;5247854;28;20134;-74
2022/07/04 00:17:36;;;;;;;4.68;2.92;;;17.30;99.90;;;;;;5246005;28;20029;-74
2022/07/04 00:20:07;;;;;;;7.13;2.88;;;17.20;99.90;;;;;;5246540;28;20053;-74
2022/07/04 00:22:38;;;;;;;7.43;3.13;;;16.90;99.90;;;;;;5247807;28;20033;-74
2022/07/04 00:25:09;;;;;;;8.65;3.10;;;17.20;99.90;;;;;;5247802;28;20033;-74
2022/07/04 00:27:40;;;;;;;6.10;3.00;;;17.30;99.90;;;;;;5247480;28;20040;-74
2022/07/04 00:30:11;;;;;;;8.35;2.90;;;17.50;99.90;;;;;;5250259;28;20100;-74
2022/07/04 00:32:42;;;;;;;5.07;2.90;;;17.30;99.90;;;;;;5250677;28;20028;-74
2022/07/04 00:35:12;;;;;;;5.90;2.83;;;17.00;99.90;;;;;;5251423;28;20024;-74
2022/07/04 00:37:43;;;;;;;7.78;3.20;;;17.00;99.90;;;;;;5267208;28;20042;-74
2022/07/04 00:40:14;;;;;;;5.95;2.83;;;17.00;99.90;;;;;;5250200;28;20103;-74
2022/07/04 00:42:45;;;;;;;6.40;2.97;;;17.20;99.90;;;;;;5251170;28;20073;-74
2022/07/04 00:45:16;;;;;;;8.88;3.15;;;17.00;99.90;;;;;;5249894;28;20364;-74
2022/07/04 00:47:46;;;;;;;6.45;2.70;;;16.80;99.90;;;;;;5251355;28;20162;-74
2022/07/04 00:50:17;;;;;;;5.90;2.97;;;16.80;99.90;;;;;;5251380;28;20543;-74
2022/07/04 00:52:48;;;;;;;7.47;3.33;;;16.50;99.90;;;;;;5251397;28;20043;-74
2022/07/04 00:55:21;;;;;;;5.72;2.97;;;16.80;99.90;;;;;;5250931;28;20029;-74
2022/07/04 00:57:52;;;;;;;7.20;3.08;;;16.80;99.90;;;;;;5250813;28;20113;-74
2022/07/04 01:00:23;;;;;;;6.28;3.10;;;16.60;99.90;;;;;;5249852;28;20020;-74
2022/07/04 01:02:54;;;;;;;7.60;3.20;;;16.80;99.90;;;;;;5251215;28;20021;-74
2022/07/04 01:05:25;;;;;;;6.55;2.63;;;16.70;99.90;;;;;;5250834;28;20025;-74
2022/07/04 01:07:58;;;;;;;6.03;3.10;;;16.60;99.90;;;;;;5249803;28;20047;-74
2022/07/04 01:10:28;;;;;;;10.48;2.97;;;16.50;99.90;;;;;;5251252;28;20017;-74
2022/07/04 01:12:59;;;;;;;6.40;2.95;;;16.40;99.90;;;;;;5251066;28;20380;-74
2022/07/04 01:15:30;;;;;;;7.72;3.50;;;16.40;99.90;;;;;;5250667;28;20107;-75
2022/07/04 01:18:01;;;;;;;8.00;3.00;;;16.50;99.90;;;;;;5250953;28;20028;-74
2022/07/04 01:20:36;;;;;;;6.63;2.92;;;16.40;99.90;;;;;;5266551;28;20025;-74
2022/07/04 01:23:07;;;;;;;8.25;3.30;;;16.40;99.90;;;;;;5250913;28;20025;-74
2022/07/04 01:25:38;;;;;;;6.25;3.08;;;16.20;99.90;;;;;;5249845;28;20024;-74
2022/07/04 01:28:09;;;;;;;5.75;3.20;;;16.20;99.90;;;;;;5250669;28;20040;-74
2022/07/04 01:30:40;;;;;;;6.95;3.70;;;16.20;99.90;;;;;;5249259;28;20021;-74
2022/07/04 01:33:11;;;;;;;7.88;3.60;;;16.20;99.90;;;;;;5250533;28;20024;-74
2022/07/04 01:35:41;;;;;;;5.90;3.30;;;16.40;99.90;;;;;;5249145;28;20112;-74
2022/07/04 01:38:12;;;;;;;9.68;4.00;;;16.20;99.90;;;;;;5266144;28;20032;-74
2022/07/04 01:40:43;;;;;;;6.32;3.58;;;16.00;99.90;;;;;;5250217;28;20024;-74
2022/07/04 01:43:14;;;;;;;5.60;3.50;;;16.00;99.90;;;;;;5250329;28;20031;-74
2022/07/04 01:45:45;;;;;;;7.50;3.40;;;16.20;99.90;;;;;;5250269;28;20484;-74
2022/07/04 01:48:16;;;;;;;14.48;3.17;;;16.20;99.90;;;;;;5250455;28;20086;-74
2022/07/04 01:50:47;;;;;;;9.98;3.45;;;16.20;99.90;;;;;;5265920;28;20066;-74
2022/07/04 01:53:17;;;;;;;6.75;3.33;;;16.10;99.90;;;;;;5250212;28;20047;-74
2022/07/04 01:55:48;;;;;;;7.03;3.78;;;16.10;99.90;;;;;;5248657;28;20029;-74
2022/07/04 01:58:19;;;;;;;7.10;3.38;;;16.00;99.90;;;;;;5265634;28;20098;-74
2022/07/04 02:03:39;;;;;;;9.27;3.33;;;16.10;99.90;;;;;;5250235;28;20111;-74
2022/07/04 02:06:10;;;;;;;12.55;4.03;;;16.10;99.90;;;;;;5250044;28;20547;-74
2022/07/04 02:13:00;;;;;;;8.48;3.83;;;16.00;99.90;;;;;;5250064;28;20035;-74
2022/07/04 02:14:20;;;;;;;9.43;3.70;;;16.10;99.90;;;;;;5249831;28;20091;-74
2022/07/04 02:16:51;;;;;;;8.57;3.58;;;16.10;99.90;;;;;;5248140;28;20149;-74
2022/07/04 02:19:22;;;;;;;10.45;3.60;;;16.00;99.90;;;;;;5249580;28;20025;-74
2022/07/04 02:21:53;;;;;;;7.05;3.50;;;15.70;99.90;;;;;;5249574;28;20084;-74
2022/07/04 02:24:24;;;;;;;5.75;3.60;;;15.90;99.90;;;;;;5249515;28;20074;-74
2022/07/04 02:27:02;;;;;;;6.30;3.40;;;16.10;99.90;;;;;;5249378;28;20032;-75
2022/07/04 02:29:37;;;;;;;6.10;3.65;;;16.10;99.90;;;;;;5264952;28;20395;-75
2022/07/04 02:32:13;;;;;;;7.07;3.50;;;16.10;99.90;;;;;;5249569;28;20024;-75
2022/07/04 02:34:52;;;;;;;6.13;3.67;;;16.20;99.90;;;;;;5265093;28;20028;-75
2022/07/04 02:37:28;;;;;;;8.40;3.80;;;15.90;99.90;;;;;;5249506;28;20021;-75
2022/07/04 02:39:58;;;;;;;6.38;3.38;;;15.90;99.90;;;;;;5248202;28;20036;-74
2022/07/04 02:42:30;;;;;;;10.63;3.88;;;16.00;99.90;;;;;;5249110;28;20028;-74
2022/07/04 02:45:02;;;;;;;7.53;3.70;;;15.80;99.90;;;;;;5249133;28;20050;-74
2022/07/04 02:47:32;;;;;;;7.25;3.58;;;15.70;99.90;;;;;;5247455;28;20040;-74
2022/07/04 02:50:04;;;;;;;9.85;4.05;;;16.00;99.90;;;;;;5249317;28;20028;-74
2022/07/04 02:52:34;;;;;;;6.80;3.53;;;15.90;99.90;;;;;;5248628;28;20020;-74
2022/07/04 02:55:05;;;;;;;5.88;3.90;;;16.00;99.90;;;;;;5249057;28;20038;-74
2022/07/04 02:57:37;;;;;;;7.35;4.13;;;16.00;99.90;;;;;;5247911;28;20451;-74
2022/07/04 03:00:08;;;;;;;10.07;4.25;;;16.00;99.90;;;;;;5248894;28;20103;-74
2022/07/04 03:02:39;;;;;;;7.90;3.70;;;16.10;99.90;;;;;;5248926;28;20033;-74
2022/07/04 03:05:10;;;;;;;8.55;3.55;;;16.30;99.90;;;;;;5248966;28;20027;-74
2022/07/04 03:07:41;;;;;;;8.98;4.40;;;16.20;99.90;;;;;;5247471;28;20044;-74
2022/07/04 03:10:12;;;;;;;8.07;3.90;;;16.30;99.90;;;;;;5248787;28;20012;-74
2022/07/04 03:12:42;;;;;;;6.82;3.65;;;16.30;99.90;;;;;;5248413;28;20400;-74
2022/07/04 03:15:13;;;;;;;8.60;3.95;;;16.50;99.90;;;;;;5248679;28;20020;-74
2022/07/04 03:17:44;;;;;;;8.00;3.60;;;16.60;99.90;;;;;;5248370;28;20020;-74
2022/07/04 03:20:15;;;;;;;8.10;3.63;;;16.80;99.90;;;;;;5248612;28;20020;-75
2022/07/04 03:22:45;;;;;;;8.63;4.15;;;16.70;99.90;;;;;;5248636;28;20036;-74
2022/07/04 03:25:16;;;;;;;7.05;4.00;;;16.70;99.90;;;;;;5248662;28;20024;-75
2022/07/04 03:27:47;;;;;;;9.98;4.40;;;16.80;99.90;;;;;;5246834;28;20102;-74
2022/07/04 03:30:18;;;;;;;9.23;4.10;;;16.90;99.90;;;;;;5248406;28;20480;-75
2022/07/04 03:32:49;;;;;;;5.60;3.53;;;17.10;99.90;;;;;;5247151;28;20024;-74
2022/07/04 03:35:19;;;;;;;10.10;4.30;;;17.50;99.90;;;;;;5247286;28;20025;-75
2022/07/04 03:37:51;;;;;;;10.43;4.13;;;17.40;99.90;;;;;;5248454;28;20082;-75
2022/07/04 03:40:22;;;;;;;10.88;4.15;;;17.40;99.90;;;;;;5247181;28;20035;-74
2022/07/04 03:42:53;;;;;;;5.75;3.55;;;17.70;99.90;;;;;;5247167;28;20055;-75
2022/07/04 03:45:24;;;;;;;7.15;3.70;;;17.60;99.90;;;;;;5247804;28;20060;-75
2022/07/04 03:47:56;;;;;;;7.53;3.70;;;18.00;99.90;;;;;;5248354;28;20079;-75
2022/07/04 03:50:27;;;;;;;6.68;4.90;;;18.20;99.90;;;;;;5248161;28;20024;-75
2022/07/04 03:52:58;;;;;;;7.35;5.20;;;18.50;99.90;;;;;;5246865;28;20032;-75
2022/07/04 03:55:28;;;;;;;9.38;4.80;;;18.50;99.90;;;;;;5248220;28;20039;-74
2022/07/04 03:58:00;;;;;;;7.18;3.92;;;18.50;99.90;;;;;;5247624;28;20127;-75
2022/07/04 04:00:32;;;;;;;4.45;2.50;;;18.70;99.90;;;;;;5248169;28;20024;-75
2022/07/04 04:05:25;;;;;;;9.40;4.60;;;18.90;99.90;;;;;;5249063;28;20020;-75
2022/07/04 04:05:54;;;;;;;9.73;3.58;;;19.00;99.90;;;;;;5252615;28;20480;-75
2022/07/04 04:08:25;;;;;;;7.05;3.63;;;19.00;99.90;;;;;;5252233;28;20028;-75
2022/07/04 04:10:56;;;;;;;6.57;3.13;;;19.10;99.90;;;;;;5252233;28;20028;-75
2022/07/04 04:13:26;;;;;;;6.13;2.65;;;19.30;99.90;;;;;;5250945;28;20028;-75
2022/07/04 04:15:57;;;;;;;7.55;2.78;;;19.90;99.90;;;;;;5251749;28;20040;-75
2022/07/04 04:18:28;;;;;;;4.93;2.10;;;20.00;99.90;;;;;;5251974;28;20067;-75
2022/07/04 04:20:59;;;;;;;7.30;2.05;;;20.30;99.90;;;;;;5251820;28;20028;-75
2022/07/04 04:23:30;;;;;;;5.60;2.00;;;20.50;99.90;;;;;;5251701;28;20403;-75
2022/07/04 04:26:01;;;;;;;7.40;2.20;;;20.70;99.90;;;;;;5267535;28;20609;-75
2022/07/04 04:28:31;;;;;;;5.22;1.90;;;21.10;99.90;;;;;;5250288;28;20028;-75
2022/07/04 04:31:02;;;;;;;6.63;2.40;;;20.90;99.90;;;;;;5256050;28;20028;-75
2022/07/04 04:33:35;;;;;;;6.07;2.13;;;21.20;99.90;;;;;;5272938;28;20031;-74
2022/07/04 04:36:06;;;;;;;3.20;1.80;;;21.20;99.90;;;;;;5272819;28;20406;-75
2022/07/04 04:38:37;;;;;;;10.18;2.08;;;21.20;99.90;;;;;;5272530;28;20023;-75
2022/07/04 04:41:07;;;;;;;7.55;2.10;;;21.10;99.90;;;;;;5272480;28;20034;-75
2022/07/04 04:43:38;;;;;;;8.07;2.08;;;21.20;99.90;;;;;;5272239;28;20074;-75
2022/07/04 04:46:09;;;;;;;8.10;2.33;;;21.20;99.90;;;;;;5272561;28;20038;-74
2022/07/04 04:48:40;;;;;;;7.68;2.13;;;21.30;99.90;;;;;;5271988;28;20039;-75
2022/07/04 04:51:11;;;;;;;6.13;2.30;;;21.60;99.90;;;;;;5272320;28;20028;-75
2022/07/04 04:53:42;;;;;;;3.65;1.90;;;21.80;99.90;;;;;;5272577;28;20098;-75
2022/07/04 04:56:12;;;;;;;9.90;1.88;;;22.10;99.90;;;;;;5270837;28;20036;-75
2022/07/04 04:58:43;;;;;;;11.30;1.80;;;21.70;99.90;;;;;;5272534;28;20438;-75
2022/07/04 05:01:14;;;;;;;7.60;2.20;;;21.90;99.90;;;;;;5269104;28;20024;-75
2022/07/04 05:03:45;;;;;;;8.65;1.98;;;22.00;99.90;;;;;;5271004;28;20107;-75
2022/07/04 05:06:15;;;;;;;5.43;2.15;;;22.20;99.90;;;;;;5272011;28;20028;-75
2022/07/04 05:08:46;;;;;;;5.28;1.80;;;22.20;99.90;;;;;;5272139;28;20032;-75
2022/07/04 05:11:17;;;;;;;4.15;1.60;;;22.00;99.90;;;;;;5271761;28;20056;-75
2022/07/04 05:13:48;;;;;;;3.45;1.67;;;21.90;99.90;;;;;;5270606;28;20447;-74
2022/07/04 05:16:19;;;;;;;5.47;1.83;;;21.80;99.90;;;;;;5263365;28;20021;-75
2022/07/04 05:18:50;;;;;;;6.78;2.00;;;21.90;99.90;;;;;;5250911;28;20498;-75
2022/07/04 05:21:20;;;;;;;6.85;2.00;;;21.80;99.90;;;;;;5259324;28;20137;-75
2022/07/04 05:23:52;;;;;;;10.70;1.73;;;21.90;99.90;;;;;;5271951;28;20026;-75
2022/07/04 05:26:23;;;;;;;10.25;1.77;;;22.00;99.90;;;;;;5270411;28;20440;-75
2022/07/04 05:28:55;;;;;;;8.88;1.92;;;21.90;99.90;;;;;;5271566;28;20110;-75
2022/07/04 05:31:26;;;;;;;9.15;1.48;;;21.80;99.90;;;;;;5267993;28;20042;-75
2022/07/04 05:33:58;;;;;;;8.07;2.25;;;22.30;99.90;;;;;;5265038;28;20020;-75
2022/07/04 05:36:29;;;;;;;5.25;1.27;;;22.60;99.90;;;;;;5271492;28;20031;-75
2022/07/04 05:38:59;;;;;;;5.65;1.30;;;22.80;99.90;;;;;;5269807;28;20487;-75
2022/07/04 05:41:30;;;;;;;5.93;1.80;;;23.00;99.90;;;;;;5271168;28;20016;-75
2022/07/04 05:44:01;;;;;;;4.55;1.60;;;22.60;99.90;;;;;;5271503;28;20036;-75
2022/07/04 05:46:31;;;;;;;5.43;1.60;;;22.90;99.90;;;;;;5263494;28;20048;-75
2022/07/04 05:49:02;;;;;;;6.82;1.65;;;22.60;99.90;;;;;;5248672;28;20469;-75
2022/07/04 05:51:33;;;;;;;6.25;1.90;;;22.40;99.90;;;;;;5264683;28;20453;-75
2022/07/04 05:54:04;;;;;;;6.10;1.90;;;22.70;99.90;;;;;;5269632;28;20073;-75
2022/07/04 05:56:37;;;;;;;6.38;1.85;;;23.20;99.90;;;;;;5269012;28;20036;-75
2022/07/04 05:59:09;;;;;;;7.93;1.60;;;23.40;99.90;;;;;;5270476;28;20028;-75
2022/07/04 06:01:40;;;;;;;4.55;1.30;;;23.50;99.90;;;;;;5270295;28;20024;-75
2022/07/04 06:04:10;;;;;;;5.78;1.73;;;23.30;99.90;;;;;;5269913;28;20031;-75
2022/07/04 06:06:41;;;;;;;5.70;1.63;;;23.10;99.90;;;;;;5271488;28;20030;-75
2022/07/04 06:09:12;;;;;;;4.75;1.45;;;23.20;99.90;;;;;;5282057;28;20028;-75
2022/07/04 06:11:43;;;;;;;4.45;1.45;;;23.00;99.90;;;;;;5273164;28;20024;-75
2022/07/04 06:14:22;;;;;;;8.60;2.08;;;22.70;99.90;;;;;;5277084;28;20039;-75
2022/07/04 06:16:53;;;;;;;8.03;1.93;;;22.60;99.90;;;;;;5250693;28;20472;-74
2022/07/04 06:19:23;;;;;;;7.78;1.98;;;22.50;99.90;;;;;;5269995;28;20107;-75
2022/07/04 06:21:54;;;;;;;4.32;1.70;;;22.80;99.90;;;;;;5270244;28;20483;-75
2022/07/04 06:24:25;;;;;;;4.43;1.77;;;23.30;99.90;;;;;;5270067;28;20467;-75
2022/07/04 06:26:56;;;;;;;4.20;1.40;;;23.70;99.90;;;;;;5273151;28;20402;-76
2022/07/04 06:29:27;;;;;;;4.03;1.35;;;23.90;99.90;;;;;;5281209;28;20024;-76
2022/07/04 06:31:58;;;;;;;5.60;1.60;;;23.40;99.90;;;;;;5269828;28;20020;-76
2022/07/04 06:37:18;;;;;;;5.20;1.90;;;23.80;99.90;;;;;;5269810;28;20122;-76
2022/07/04 06:39:49;;;;;;;7.35;1.80;;;23.50;99.90;;;;;;5282608;28;20020;-75
2022/07/04 06:42:19;;;;;;;6.38;2.00;;;23.50;99.90;;;;;;5272039;28;20034;-75
2022/07/04 06:44:50;;;;;;;5.75;2.42;;;23.90;99.90;;;;;;5273116;28;20065;-75
2022/07/04 06:47:21;;;;;;;7.47;1.70;;;23.80;99.90;;;;;;5259088;28;20087;-75
2022/07/04 06:49:52;;;;;;;6.15;2.05;;;24.00;99.90;;;;;;5277537;28;20475;-75
2022/07/04 06:52:22;;;;;;;3.75;1.90;;;24.00;99.90;;;;;;5289056;28;20532;-75
2022/07/04 06:54:53;;;;;;;4.70;1.45;;;23.50;99.90;;;;;;5279101;28;20030;-75
2022/07/04 06:57:24;;;;;;;8.93;1.73;;;23.40;99.90;;;;;;5280592;28;20778;-74
2022/07/04 06:59:55;;;;;;;6.22;1.80;;;24.00;99.90;;;;;;5273517;28;20040;-76
2022/07/04 07:02:26;;;;;;;5.50;1.73;;;24.20;99.90;;;;;;5270178;28;20024;-75
2022/07/04 07:05:19;;;;;;;4.97;1.60;;;24.50;99.90;;;;;;5273254;28;20020;-75
2022/07/04 07:07:50;;;;;;;7.63;1.70;;;24.70;99.90;;;;;;5274337;28;20036;-75
2022/07/04 07:10:21;;;;;;;4.20;1.60;;;24.50;99.90;;;;;;5272804;28;20027;-75
2022/07/04 07:12:52;;;;;;;5.28;1.65;;;24.90;99.90;;;;;;5267671;28;20337;-75
2022/07/04 07:15:23;;;;;;;6.35;1.60;;;24.40;99.90;;;;;;5267667;28;20031;-75
2022/07/04 07:17:54;;;;;;;6.75;1.77;;;24.00;99.90;;;;;;5261899;28;20051;-74
2022/07/04 07:20:25;;;;;;;5.63;1.90;;;24.50;99.90;;;;;;5270173;28;20378;-75
2022/07/04 07:22:56;;;;;;;7.38;1.73;;;25.10;99.90;;;;;;5280867;28;20028;-76
2022/07/04 07:25:26;;;;;;;8.73;1.80;;;25.00;99.90;;;;;;5289939;28;20023;-75
2022/07/04 07:27:59;;;;;;;4.85;1.40;;;25.20;99.90;;;;;;5277964;28;20464;-74
2022/07/04 07:30:29;;;;;;;5.70;1.90;;;24.90;99.90;;;;;;5266149;28;20017;-75
2022/07/04 07:33:00;;;;;;;4.20;1.92;;;24.90;99.90;;;;;;5289865;28;20502;-75
2022/07/04 07:35:31;;;;;;;8.00;1.70;;;25.40;99.90;;;;;;5268230;28;20024;-75
2022/07/04 07:38:02;;;;;;;5.18;1.70;;;25.50;99.90;;;;;;5268608;28;20103;-75
2022/07/04 07:40:33;;;;;;;7.53;2.00;;;25.30;99.90;;;;;;5267410;28;20119;-75
2022/07/04 07:43:04;;;;;;;6.72;2.15;;;25.10;99.90;;;;;;5270316;28;20013;-75
2022/07/04 07:45:35;;;;;;;5.93;2.13;;;25.00;99.90;;;;;;5268434;28;20024;-75
2022/07/04 07:48:06;;;;;;;2.80;1.60;;;25.20;99.90;;;;;;5268132;28;20030;-75
2022/07/04 07:50:37;;;;;;;9.93;2.22;;;25.60;99.90;;;;;;5271166;28;20107;-75
2022/07/04 07:53:08;;;;;;;5.32;1.60;;;26.00;99.90;;;;;;5282208;28;20107;-75
2022/07/04 07:55:38;;;;;;;3.05;1.63;;;26.50;99.90;;;;;;5271345;28;20020;-75
2022/07/04 07:58:09;;;;;;;6.43;1.92;;;26.30;99.90;;;;;;5278122;28;20380;-74
2022/07/04 08:00:42;;;;;;;3.58;1.50;;;26.40;99.90;;;;;;5270965;28;20073;-75
2022/07/04 08:06:03;;;;;;;;;;;26.40;99.90;;;;;;5283767;28;20030;-75
2022/07/04 08:08:33;;;;;;;5.75;1.35;;;25.90;99.90;;;;;;5272419;28;20310;-75
2022/07/04 08:11:04;;;;;;;5.38;1.80;;;26.10;99.90;;;;;;5273910;28;20016;-75
2022/07/04 08:13:36;;;;;;;6.97;1.90;;;26.00;99.90;;;;;;5271538;28;20099;-75
2022/07/04 08:16:07;;;;;;;6.55;1.58;;;26.30;99.90;;;;;;5278171;28;20028;-75
2022/07/04 08:18:38;;;;;;;3.40;1.30;;;26.00;99.90;;;;;;5267871;28;20016;-75
2022/07/04 08:21:09;;;;;;;7.72;1.80;;;25.70;99.90;;;;;;5268356;28;20029;-76
2022/07/04 08:23:41;;;;;;;8.25;1.63;;;25.50;99.90;;;;;;5268001;28;20044;-75
2022/07/04 08:26:13;;;;;;;8.45;2.00;;;25.70;99.90;;;;;;5267163;28;20336;-76
2022/07/04 08:28:44;;;;;;;3.55;1.73;;;25.90;99.90;;;;;;5268034;28;20495;-76
2022/07/04 08:31:15;;;;;;;5.57;1.55;;;25.80;99.90;;;;;;5276388;28;20031;-76
2022/07/04 08:33:47;;;;;;;4.28;1.60;;;25.80;99.90;;;;;;5268256;28;20016;-75
2022/07/04 08:36:18;;;;;;;6.45;2.17;;;25.60;99.90;;;;;;5285011;28;20024;-75
2022/07/04 08:38:49;;;;;;;7.43;2.20;;;25.90;99.90;;;;;;5272476;28;20023;-75
2022/07/04 08:41:20;;;;;;;5.15;1.83;;;26.00;99.90;;;;;;5284456;28;20042;-76
2022/07/04 08:43:53;;;;;;;4.55;1.67;;;26.60;99.90;;;;;;5264641;28;20023;-75
2022/07/04 08:46:27;;;;;;;6.80;2.13;;;26.70;99.90;;;;;;5272335;28;20036;-74
2022/07/04 08:49:02;;;;;;;5.80;1.88;;;26.60;99.90;;;;;;5273625;28;20027;-75
2022/07/04 08:51:58;;;;;;;6.65;2.00;;;26.80;99.90;;;;;;5273895;28;20024;-75
2022/07/04 09:00:09;;;;;;;3.80;1.80;;;27.20;99.90;;;;;;5265484;28;20100;-75
2022/07/04 09:02:40;;;;;;;5.65;2.10;;;26.30;99.90;;;;;;5285186;28;20056;-75
2022/07/04 09:05:11;;;;;;;11.18;2.17;;;26.50;99.90;;;;;;5294109;28;20090;-76
2022/07/04 09:07:42;;;;;;;6.53;1.90;;;26.30;99.90;;;;;;5293481;28;20109;-75
2022/07/04 09:10:14;;;;;;;4.15;2.03;;;26.50;99.90;;;;;;5276697;28;20486;-74
2022/07/04 09:12:45;;;;;;;8.77;2.08;;;26.40;99.90;;;;;;5275418;28;20051;-75
2022/07/04 09:15:16;;;;;;;4.50;2.30;;;26.90;99.90;;;;;;5284656;28;20031;-75
2022/07/04 09:17:48;;;;;;;5.18;2.20;;;26.80;99.90;;;;;;5279616;27;20036;-75
2022/07/04 09:20:21;;;;;;;7.53;2.28;;;27.00;99.90;;;;;;5279662;28;20028;-75
2022/07/04 09:22:53;;;;;;;6.38;2.10;;;27.10;99.90;;;;;;5276301;28;20026;-75
2022/07/04 09:25:25;;;;;;;10.25;2.30;;;26.50;99.90;;;;;;5281222;28;20463;-77
2022/07/04 09:27:57;;;;;;;6.13;2.00;;;26.70;99.90;;;;;;5270986;28;20036;-74
2022/07/04 09:30:28;;;;;;;3.78;2.00;;;26.10;99.90;;;;;;5272055;28;20436;-74
2022/07/04 09:33:02;;;;;;;5.20;2.22;;;26.90;99.90;;;;;;5280623;28;20032;-74
2022/07/04 09:35:34;;;;;;;5.68;2.00;;;27.10;99.90;;;;;;5270891;28;20022;-74
2022/07/04 09:38:05;;;;;;;10.10;2.42;;;26.40;99.90;;;;;;5270884;28;20031;-75
2022/07/04 09:43:27;;;;;;;6.80;2.30;;;26.80;99.90;;;;;;5269780;28;20054;-75
2022/07/04 09:46:01;;;;;;;4.50;2.28;;;27.00;99.90;;;;;;5277337;28;20027;-74
2022/07/04 09:48:51;;;;;;;8.30;2.33;;;26.50;99.90;;;;;;5288049;28;20035;-75
2022/07/04 09:51:42;;;;;;;7.13;2.30;;;27.30;99.90;;;;;;5282724;28;20023;-75
2022/07/04 09:54:26;;;;;;;6.32;2.53;;;27.80;99.90;;;;;;5280222;28;20448;-75
2022/07/04 09:56:59;;;;;;;7.45;2.58;;;27.10;99.90;;;;;;5263160;28;20474;-74
2022/07/04 09:59:30;;;;;;;4.68;2.47;;;27.00;99.90;;;;;;5280875;28;20028;-75
2022/07/04 10:02:09;;;;;;;7.10;2.30;;;27.60;99.90;;;;;;5270362;28;20375;-75
2022/07/04 10:04:51;;;;;;;8.10;2.63;;;27.80;99.90;;;;;;5272937;28;20032;-75
2022/07/04 10:07:43;;;;;;;6.15;2.17;;;27.10;99.90;;;;;;5270546;28;20039;-75
2022/07/04 10:10:33;;;;;;;5.30;2.38;;;26.40;99.90;;;;;;5274010;28;20055;-75
2022/07/04 10:13:10;;;;;;;6.80;2.22;;;26.70;99.90;;;;;;5280734;28;20077;-75
2022/07/04 10:15:42;;;;;;;5.03;2.47;;;27.00;99.90;;;;;;5269807;28;20078;-75
2022/07/04 10:18:14;;;;;;;9.15;2.47;;;26.90;99.90;;;;;;5278754;28;20381;-74
2022/07/04 10:20:46;;;;;;;8.35;2.60;;;27.00;99.90;;;;;;5286843;28;20034;-75
2022/07/04 10:23:18;;;;;;;8.48;2.53;;;26.70;99.90;;;;;;5270083;28;20028;-74
2022/07/04 10:25:50;;;;;;;9.40;2.28;;;27.40;99.90;;;;;;5269694;28;20031;-76
2022/07/04 10:28:21;;;;;;;7.88;2.60;;;27.70;99.90;;;;;;5274165;28;20040;-75
2022/07/04 10:30:54;;;;;;;7.82;2.38;;;27.20;99.90;;;;;;5270159;28;20023;-75
2022/07/04 10:33:27;;;;;;;7.47;2.90;;;27.10;99.90;;;;;;5273349;28;20028;-75
2022/07/04 10:36:01;;;;;;;5.50;2.42;;;26.80;99.90;;;;;;5268739;28;20016;-75
2022/07/04 10:38:34;;;;;;;7.93;2.50;;;27.50;99.90;;;;;;5268780;28;20020;-75
2022/07/04 10:41:08;;;;;;;7.38;2.42;;;27.60;99.90;;;;;;5270292;28;20027;-74
2022/07/04 10:43:48;;;;;;;5.55;2.47;;;27.50;99.90;;;;;;5270184;28;20028;-74
2022/07/04 10:46:36;;;;;;;6.45;2.17;;;27.60;99.90;;;;;;5268372;28;20556;-74
2022/07/04 10:49:17;;;;;;;5.95;2.42;;;27.50;99.90;;;;;;5270046;28;20043;-74
2022/07/04 10:52:11;;;;;;;14.68;3.22;;;27.30;99.90;;;;;;5276100;28;20015;-75
2022/07/04 10:54:44;;;;;;;6.93;2.45;;;27.10;99.90;;;;;;5267752;28;20027;-75
2022/07/04 10:57:24;;;;;;;8.27;2.47;;;27.80;99.90;;;;;;5269526;28;20530;-76
2022/07/04 10:59:56;;;;;;;;;;;27.20;99.90;;;;;;5283594;28;20387;-75
2022/07/04 11:02:36;;;;;;;6.70;2.30;;;26.90;99.90;;;;;;5272120;28;19911;-75
2022/07/04 11:05:11;;;;;;;5.25;2.75;;;27.30;99.90;;;;;;5276690;28;20031;-75
2022/07/04 11:07:57;;;;;;;10.25;2.92;;;27.70;99.90;;;;;;5272697;28;20492;-75
2022/07/04 11:10:31;;;;;;;6.00;2.60;;;27.20;99.90;;;;;;5256513;28;20172;-75
2022/07/04 11:13:03;;;;;;;14.75;3.08;;;27.90;99.90;;;;;;5273858;28;20024;-75
2022/07/04 11:15:34;;;;;;;9.82;3.17;;;27.70;99.90;;;;;;5277824;28;20039;-75
2022/07/04 11:18:09;;;;;;;5.43;2.60;;;26.90;99.90;;;;;;5277189;28;20027;-75
2022/07/04 11:20:49;;;;;;;7.03;2.80;;;27.00;99.90;;;;;;5267903;28;20024;-75
2022/07/04 11:23:20;;;;;;;8.98;2.45;;;27.20;99.90;;;;;;5267893;28;20118;-75
2022/07/04 11:25:52;;;;;;;6.05;2.88;;;27.10;99.90;;;;;;5271733;28;20020;-76
2022/07/04 11:28:30;;;;;;;6.60;3.03;;;27.50;99.90;;;;;;5269633;28;20181;-75
2022/07/04 11:31:00;;;;;;;8.20;3.17;;;27.50;99.90;;;;;;5290137;28;20367;-75
2022/07/04 11:33:33;;;;;;;6.82;2.70;;;27.70;99.90;;;;;;5290009;28;20031;-75
2022/07/04 11:36:06;;;;;;;6.05;3.17;;;27.60;99.90;;;;;;5268871;28;20502;-74
2022/07/04 11:39:00;;;;;;;5.28;3.08;;;27.30;99.90;;;;;;5288347;28;20020;-75
2022/07/04 11:47:36;;;;;;;8.20;2.83;;;28.00;99.90;;;;;;5268794;28;20036;-75
2022/07/04 11:50:18;;;;;;;8.05;3.15;;;27.70;99.90;;;;;;5268929;28;20097;-75
2022/07/04 11:52:53;;;;;;;7.28;2.85;;;27.20;99.90;;;;;;5252637;28;20016;-74
2022/07/04 11:55:24;;;;;;;7.32;2.92;;;27.60;99.90;;;;;;5276952;28;20026;-74
2022/07/04 11:57:57;;;;;;;6.25;3.17;;;27.50;99.90;;;;;;5275662;28;20048;-74
2022/07/04 12:00:34;;;;;;;4.22;2.58;;;27.50;99.90;;;;;;5268715;28;20127;-74
2022/07/04 12:03:08;;;;;;;6.40;2.72;;;27.90;99.90;;;;;;5280690;28;20028;-74
2022/07/04 12:05:38;;;;;;;7.20;2.65;;;28.10;99.90;;;;;;5279084;28;20463;-74
2022/07/04 12:08:10;;;;;;;5.38;2.63;;;27.50;99.90;;;;;;5273626;28;20051;-74
2022/07/04 12:10:41;;;;;;;8.07;3.05;;;27.20;99.90;;;;;;5269714;28;20466;-74
2022/07/04 12:13:19;;;;;;;9.07;2.80;;;27.60;99.90;;;;;;5267608;28;20443;-74
2022/07/04 12:15:56;;;;;;;7.75;2.95;;;28.00;99.90;;;;;;5281279;28;20031;-74
2022/07/04 12:18:32;;;;;;;5.95;2.75;;;26.80;99.90;;;;;;5272119;28;20468;-74
2022/07/04 12:21:22;;;;;;;5.97;2.53;;;27.30;99.90;;;;;;5289330;28;20019;-74
2022/07/04 12:23:57;;;;;;;8.70;3.28;;;27.80;99.90;;;;;;5276368;28;20087;-74
2022/07/04 12:26:32;;;;;;;11.02;2.88;;;27.30;99.90;;;;;;5286223;28;20036;-74
2022/07/04 12:29:09;;;;;;;8.68;3.00;;;26.90;99.90;;;;;;5278899;28;20115;-75
2022/07/04 12:31:49;;;;;;;6.70;2.78;;;27.00;99.90;;;;;;5281985;28;20024;-75
2022/07/04 12:34:24;;;;;;;4.60;3.10;;;27.30;99.90;;;;;;5290092;28;20057;-75
2022/07/04 12:36:59;;;;;;;6.75;3.00;;;27.10;99.90;;;;;;5272816;28;20416;-75
2022/07/04 12:39:46;;;;;;;9.93;3.60;;;27.70;99.90;;;;;;5271799;28;20024;-75
2022/07/04 12:42:23;;;;;;;8.43;3.38;;;27.20;99.90;;;;;;5259008;28;20349;-75
2022/07/04 12:45:12;;;;;;;7.55;3.05;;;27.40;99.90;;;;;;5270524;28;20047;-75
2022/07/04 12:47:57;;;;;;;6.57;2.70;;;27.70;99.90;;;;;;5270872;28;20129;-75
2022/07/04 12:50:31;;;;;;;6.95;3.03;;;27.50;99.90;;;;;;5272046;28;20031;-75
2022/07/04 12:53:06;;;;;;;6.38;3.38;;;27.10;99.90;;;;;;5270498;28;20127;-75
2022/07/04 12:55:47;;;;;;;7.38;2.83;;;26.90;99.90;;;;;;5271801;28;20051;-74
2022/07/04 12:58:23;;;;;;;10.32;3.67;;;27.50;99.90;;;;;;5275276;28;20056;-75
2022/07/04 13:01:01;;;;;;;6.82;3.10;;;26.80;99.90;;;;;;5284253;28;20016;-75
2022/07/04 13:03:34;;;;;;;6.57;2.70;;;27.50;99.90;;;;;;5282157;28;20027;-75
2022/07/04 13:06:08;;;;;;;7.47;2.95;;;27.40;99.90;;;;;;5277504;27;20013;-74
2022/07/04 13:08:41;;;;;;;5.15;2.70;;;27.30;99.90;;;;;;5287363;28;20131;-74
2022/07/04 13:14:26;;;;;;;6.55;3.20;;;27.40;99.90;;;;;;5258781;28;20028;-74
2022/07/04 13:17:00;;;;;;;6.30;2.80;;;26.50;99.90;;;;;;5277290;28;20020;-74
2022/07/04 13:19:35;;;;;;;12.23;3.28;;;27.00;99.90;;;;;;5291634;28;20024;-75
2022/07/04 13:22:10;;;;;;;8.43;2.90;;;26.90;99.90;;;;;;5289152;28;20106;-75
2022/07/04 13:24:51;;;;;;;7.25;2.88;;;26.90;99.90;;;;;;5290285;28;20023;-75
2022/07/04 13:27:29;;;;;;;5.55;2.88;;;27.40;99.90;;;;;;5270056;28;20059;-75
2022/07/04 13:30:04;;;;;;;7.07;2.83;;;27.30;99.90;;;;;;5285800;28;20100;-75
2022/07/04 13:32:41;;;;;;;7.82;2.88;;;27.70;99.90;;;;;;5272942;28;20081;-74
2022/07/04 13:35:18;;;;;;;5.78;2.78;;;27.40;99.90;;;;;;5270918;28;20422;-75
2022/07/04 13:37:56;;;;;;;9.15;3.00;;;27.40;99.90;;;;;;5270626;28;20028;-75
2022/07/04 13:40:34;;;;;;;10.85;3.13;;;27.40;99.90;;;;;;5272221;28;20027;-75
2022/07/04 13:43:11;;;;;;;8.70;2.70;;;27.30;99.90;;;;;;5263540;28;20028;-75
2022/07/04 13:45:49;;;;;;;11.82;3.25;;;27.10;99.90;;;;;;5272929;28;20039;-75